Main page
METAR-TAF:

METAR-TAF

Airports :

Bauerfield International Airport

Port Vila, Efate, Vanuatu

latitude: 17-42S, longitude: 168-18E, elevation: 20 m

Current weather observation

The report was made 52 minutes ago, at 15:00 UTC
Wind 1 kt from the East
Temperature 20°C
Humidity 94%
Pressure 1014 hPa
Visibility 10 km or more
Few clouds at a height of 2000 ft

METAR: NVVV 291500Z 10001KT 9999 FEW020 20/19 Q1014

Time: 02:52 (15:52 UTC)

Forecast

The report was made 5 hours and 52 minutes ago, at 10:00 UTC
Forecast valid from 29 at 12 UTC to 30 at 12 UTC
Wind 2 kt from variable directions
Visibility 10 km or more
Scattered clouds at a height of 2000 ft
Probability 30%
between IN and TE UTC
Visibility: 9000 m
Broken clouds at a height of 1800 ft
light rain showers

TAF: NVVV 291000Z 2912/3012 VRB02KT 9999 SCT020 PROB30 INTER 2912/2918 9000 -SHRA BKN018

Weather observations and forecasts of more than 4000 airports (METAR and TAF reports).

The available stations are represented by yellow and red dots on the map.

Hover mouse over dot to see the name of the station.

Then click to see weather observations and forecasts.

To change the map : click on the green buttons with a black cross to zoom in, on the green button with a dash to zoom out, or on the green arrows for adjacent maps.


METAR-TAF: